This is the latest recevied weather packets stored in our database for station/object K8RLH. If no packets are shown the sender has not sent any weather packets the latest 10 day(s).
| Time | Temp. | Humidity | Pressure | Rain* | Wind** | Luminosity | Snow |
|---|---|---|---|---|---|---|---|
| 1777825526 | 16.67° C | 49% | 1022.4 hPa | 0 mm | - | 68 W/m² | - |
| 1777825224 | 16.67° C | 50% | 1022.4 hPa | 0 mm | - | 58 W/m² | - |
| 1777824920 | 16.67° C | 49% | 1022.3 hPa | 0 mm | - | 55 W/m² | - |
| 1777824616 | 16.67° C | 51% | 1022.4 hPa | 0 mm | - | 68 W/m² | - |
| 1777824314 | 16.67° C | 50% | 1022.6 hPa | 0 mm | - | 117 W/m² | - |
| 1777824009 | 16.67° C | 48% | 1022.6 hPa | 0 mm | - | 49 W/m² | - |
| 1777823706 | 17.78° C | 46% | 1022.7 hPa | 0 mm | - | 57 W/m² | - |
| 1777823403 | 17.22° C | 45% | 1022.7 hPa | 0 mm | - | 87 W/m² | - |
| 1777823101 | 16.67° C | 50% | 1022.6 hPa | 0 mm | - | 138 W/m² | - |
| 1777822798 | 16.67° C | 51% | 1022.6 hPa | 0 mm | - | 320 W/m² | - |
| 1777822495 | 16.67° C | 50% | 1022.6 hPa | 0 mm | - | 289 W/m² | - |
| 1777822193 | 16.11° C | 52% | 1022.6 hPa | 0 mm | - | 175 W/m² | - |
| 1777821890 | 16.11° C | 54% | 1022.7 hPa | 0 mm | - | 87 W/m² | - |
| 1777821588 | 15.56° C | 53% | 1022.8 hPa | 0 mm | - | 134 W/m² | - |
| 1777821285 | 15.56° C | 53% | 1022.7 hPa | 0 mm | - | 152 W/m² | - |
| 1777820982 | 15° C | 56% | 1022.8 hPa | 0 mm | - | 90 W/m² | - |
| 1777820679 | 15.56° C | 55% | 1022.9 hPa | 0 mm | - | 109 W/m² | - |
| 1777820375 | 16.11° C | 57% | 1022.9 hPa | 0 mm | - | 98 W/m² | - |
| 1777820073 | 16.11° C | 56% | 1022.8 hPa | 0 mm | - | 66 W/m² | - |
| 1777819770 | 15.56° C | 57% | 1022.7 hPa | 0 mm | - | 167 W/m² | - |
| 1777819467 | 16.11° C | 54% | 1022.7 hPa | 0 mm | - | 57 W/m² | - |
| 1777819165 | 16.67° C | 50% | 1022.7 hPa | 0 mm | - | 273 W/m² | - |
| 1777818861 | 16.67° C | 52% | 1022.8 hPa | 0 mm | - | 468 W/m² | - |
| 1777818558 | 16.11° C | 54% | 1022.6 hPa | 0 mm | - | 247 W/m² | - |
| 1777818255 | 15.56° C | 61% | 1022.7 hPa | 0 mm | - | 513 W/m² | - |
* Rain latest hour (hover to see other rain measurements)
** Current wind speed in m/s (hover to see current wind gust speed)